createdAt,value
2023-11-14T00:01:13.913Z,74.38
2023-11-14T00:03:40.617Z,86.22
2023-11-14T00:06:07.447Z,69.88
2023-11-14T00:08:34.021Z,78.25
2023-11-14T00:11:00.733Z,70.88
2023-11-14T00:13:27.742Z,70.28
2023-11-14T00:15:54.485Z,76.45
2023-11-14T00:18:21.184Z,77.97
2023-11-14T00:20:47.858Z,66.45
2023-11-14T00:23:14.472Z,86.22
2023-11-14T00:25:41.101Z,70.10
2023-11-14T00:28:07.708Z,75.35
2023-11-14T00:30:34.317Z,75.22
2023-11-14T00:33:00.972Z,80.47
2023-11-14T00:35:27.622Z,79.88
2023-11-14T00:37:54.336Z,77.35
2023-11-14T00:40:20.974Z,77.13
2023-11-14T00:42:47.625Z,86.57
2023-11-14T00:45:14.251Z,81.70
2023-11-14T00:47:40.926Z,74.70
2023-11-14T00:50:08.822Z,63.10
2023-11-14T00:52:35.492Z,76.73
2023-11-14T00:55:02.093Z,62.20
2023-11-14T00:57:28.950Z,65.05
2023-11-14T00:59:55.589Z,78.40
2023-11-14T01:02:22.257Z,92.30
2023-11-14T01:04:48.997Z,79.50
2023-11-14T01:07:15.624Z,76.20
2023-11-14T01:09:42.195Z,75.82
2023-11-14T01:12:08.873Z,83.20
2023-11-14T01:14:35.449Z,72.53
2023-11-14T01:17:02.151Z,66.57
2023-11-14T01:19:28.895Z,91.80
2023-11-14T01:21:55.481Z,77.53
2023-11-14T01:24:22.064Z,72.53
2023-11-14T01:26:48.692Z,84.30
2023-11-14T01:29:15.242Z,87.00
2023-11-14T01:31:41.874Z,81.97
2023-11-14T01:34:08.565Z,77.93
2023-11-14T01:36:35.142Z,81.25
2023-11-14T01:39:01.726Z,78.40
2023-11-14T01:41:28.412Z,81.82
2023-11-14T01:43:55.098Z,94.85
2023-11-14T01:46:22.007Z,79.03
2023-11-14T01:48:51.025Z,81.53
2023-11-14T01:51:19.475Z,73.63
2023-11-14T01:53:49.705Z,81.30
2023-11-14T01:56:17.207Z,73.72
2023-11-14T01:58:44.454Z,82.10
2023-11-14T02:01:11.798Z,69.75
2023-11-14T02:03:38.521Z,72.22
2023-11-14T02:06:05.340Z,70.60
2023-11-14T02:08:32.502Z,79.50
2023-11-14T02:10:59.891Z,84.32
2023-11-14T02:13:26.756Z,72.78
2023-11-14T02:15:53.343Z,71.65
2023-11-14T02:18:20.990Z,73.43
2023-11-14T02:20:47.748Z,77.45
2023-11-14T02:23:17.406Z,72.85
2023-11-14T02:25:45.176Z,81.20
2023-11-14T02:28:12.137Z,72.22
2023-11-14T02:30:38.940Z,80.13
2023-11-14T02:33:06.519Z,77.38
2023-11-14T02:35:33.099Z,77.18
2023-11-14T02:37:59.945Z,71.03
2023-11-14T02:40:26.903Z,68.30
2023-11-14T02:42:53.552Z,76.07
2023-11-14T02:45:20.947Z,88.55
2023-11-14T02:47:48.117Z,84.60
2023-11-14T02:50:30.545Z,81.75
2023-11-14T02:52:57.250Z,82.32
2023-11-14T02:55:23.804Z,73.25
2023-11-14T02:57:50.381Z,74.72
2023-11-14T03:00:17.162Z,100.88
2023-11-14T03:02:44.670Z,74.53
2023-11-14T03:05:11.577Z,76.03
2023-11-14T03:07:38.210Z,59.72
2023-11-14T03:10:05.353Z,76.18
2023-11-14T03:12:32.038Z,83.00
2023-11-14T03:14:58.641Z,90.13
2023-11-14T03:17:25.571Z,80.18
2023-11-14T03:19:52.274Z,73.05
2023-11-14T03:22:18.904Z,74.20
2023-11-14T03:24:45.489Z,81.40
2023-11-14T03:27:12.103Z,77.57
2023-11-14T03:29:38.690Z,75.93
2023-11-14T03:32:05.707Z,83.65
2023-11-14T03:34:32.400Z,77.68
2023-11-14T03:36:59.066Z,91.70
2023-11-14T03:39:25.651Z,69.53
2023-11-14T03:41:52.229Z,76.32
2023-11-14T03:44:18.848Z,70.38
2023-11-14T03:46:45.510Z,83.53
2023-11-14T03:49:12.143Z,81.20
2023-11-14T03:51:38.754Z,84.30
2023-11-14T03:54:05.472Z,79.28
2023-11-14T03:56:32.033Z,70.35
2023-11-14T03:58:58.681Z,76.15
2023-11-14T04:01:25.320Z,77.03
2023-11-14T04:03:52.064Z,78.22
2023-11-14T04:06:18.817Z,81.45
2023-11-14T04:08:45.468Z,76.70
2023-11-14T04:11:12.104Z,67.53
2023-11-14T04:13:38.820Z,95.28
2023-11-14T04:16:09.547Z,82.40
2023-11-14T04:18:37.100Z,74.72
2023-11-14T04:21:04.141Z,77.40
2023-11-14T04:23:30.724Z,77.30
2023-11-14T04:25:57.467Z,70.28
2023-11-14T04:28:24.084Z,83.70
2023-11-14T04:30:50.607Z,72.55
2023-11-14T04:33:17.283Z,72.05
2023-11-14T04:35:43.940Z,83.38
2023-11-14T04:38:10.574Z,72.35
2023-11-14T04:40:37.279Z,74.05
2023-11-14T04:43:03.930Z,72.45
2023-11-14T04:45:30.710Z,72.10
2023-11-14T04:47:58.491Z,83.78
2023-11-14T04:50:25.166Z,71.07
2023-11-14T04:52:51.766Z,76.82
2023-11-14T04:55:18.400Z,75.38
2023-11-14T04:57:45.053Z,86.28
2023-11-14T05:00:11.931Z,85.57
2023-11-14T05:02:38.567Z,86.32
2023-11-14T05:05:05.755Z,78.72
2023-11-14T05:07:32.409Z,77.80
2023-11-14T05:09:59.447Z,67.43
2023-11-14T05:12:26.145Z,78.47
2023-11-14T05:14:52.742Z,67.57
2023-11-14T05:17:19.470Z,76.20
2023-11-14T05:19:48.651Z,82.43
2023-11-14T05:22:15.614Z,71.00
2023-11-14T05:24:42.205Z,75.05
2023-11-14T05:27:08.775Z,81.43
2023-11-14T05:29:37.636Z,83.10
2023-11-14T05:32:05.081Z,76.55
2023-11-14T05:34:31.765Z,70.90
2023-11-14T05:36:58.375Z,82.13
2023-11-14T05:39:24.995Z,81.35
2023-11-14T05:41:51.676Z,65.47
2023-11-14T05:44:18.259Z,74.75
2023-11-14T05:46:44.890Z,81.45
2023-11-14T05:49:12.321Z,75.13
2023-11-14T05:51:39.055Z,74.00
2023-11-14T05:54:06.252Z,63.83
2023-11-14T05:56:32.925Z,73.78
2023-11-14T05:58:59.540Z,82.20
2023-11-14T06:01:26.171Z,70.43
2023-11-14T06:03:52.904Z,74.70
2023-11-14T06:06:19.635Z,71.88
2023-11-14T06:08:46.218Z,62.10
2023-11-14T06:11:16.571Z,81.28
2023-11-14T06:13:45.084Z,68.43
2023-11-14T06:16:11.991Z,86.35
2023-11-14T06:18:38.643Z,66.80
2023-11-14T06:21:05.498Z,73.15
2023-11-14T06:23:32.100Z,71.25
2023-11-14T06:25:59.005Z,82.50
2023-11-14T06:28:25.622Z,71.78
2023-11-14T06:30:52.194Z,79.00
2023-11-14T06:33:18.783Z,69.72
2023-11-14T06:35:45.372Z,72.28
2023-11-14T06:38:11.966Z,71.00
2023-11-14T06:40:38.658Z,74.47
2023-11-14T06:43:05.309Z,80.53
2023-11-14T06:45:31.910Z,86.95
2023-11-14T06:47:58.789Z,68.95
2023-11-14T06:50:33.906Z,77.38
2023-11-14T06:53:08.790Z,71.03
2023-11-14T06:55:35.411Z,70.75
2023-11-14T06:58:02.093Z,61.45
2023-11-14T07:00:28.804Z,55.42
2023-11-14T07:02:55.507Z,66.25
2023-11-14T07:05:22.251Z,59.78
2023-11-14T07:07:48.995Z,61.72
2023-11-14T07:10:15.644Z,65.13
2023-11-14T07:12:42.238Z,65.28
2023-11-14T07:15:09.342Z,58.45
2023-11-14T07:17:36.120Z,62.08
2023-11-14T07:20:03.763Z,65.22
2023-11-14T07:22:30.582Z,50.05
2023-11-14T07:24:57.203Z,55.03
2023-11-14T07:27:23.853Z,53.08
2023-11-14T07:29:50.426Z,55.33
2023-11-14T07:32:17.121Z,57.92
2023-11-14T07:34:43.768Z,52.33
2023-11-14T07:37:10.365Z,57.88
2023-11-14T07:39:36.972Z,50.20
2023-11-14T07:42:03.796Z,48.75
2023-11-14T07:44:30.378Z,57.92
2023-11-14T07:47:07.802Z,54.42
2023-11-14T07:49:42.474Z,67.57
2023-11-14T07:52:09.089Z,61.58
2023-11-14T07:54:35.877Z,53.03
2023-11-14T07:57:02.513Z,63.63
2023-11-14T07:59:30.692Z,55.17
2023-11-14T08:01:57.608Z,62.38
2023-11-14T08:04:24.481Z,51.25
2023-11-14T08:06:51.572Z,60.47
2023-11-14T08:09:18.199Z,56.42
2023-11-14T08:11:44.810Z,58.90
2023-11-14T08:14:11.447Z,52.35
2023-11-14T08:16:38.081Z,69.82
2023-11-14T08:19:04.747Z,57.95
2023-11-14T08:21:31.350Z,64.32
2023-11-14T08:23:57.986Z,58.72
2023-11-14T08:26:24.689Z,54.80
2023-11-14T08:28:51.370Z,60.92
2023-11-14T08:31:18.169Z,57.75
2023-11-14T08:33:44.775Z,64.68
2023-11-14T08:36:11.464Z,58.15
2023-11-14T08:38:38.102Z,50.40
2023-11-14T08:41:05.257Z,61.72
2023-11-14T08:43:31.949Z,50.13
2023-11-14T08:45:58.627Z,73.65
2023-11-14T08:48:25.256Z,57.05
2023-11-14T08:50:54.718Z,61.65
2023-11-14T08:53:21.757Z,67.45
2023-11-14T08:55:48.509Z,76.93
2023-11-14T08:58:15.128Z,67.88
2023-11-14T09:00:41.718Z,35.08
2023-11-14T09:03:08.677Z,22.52
2023-11-14T09:05:35.875Z,9.80
2023-11-14T09:08:02.867Z,11.40
2023-11-14T09:10:29.434Z,19.00
2023-11-14T09:12:55.985Z,43.53
2023-11-14T09:15:22.606Z,51.08
2023-11-14T09:17:53.113Z,59.40
2023-11-14T09:20:22.193Z,53.10
2023-11-14T09:22:48.785Z,47.35
2023-11-14T09:25:15.831Z,57.58
2023-11-14T09:27:42.958Z,67.65
2023-11-14T09:30:10.072Z,90.80
2023-11-14T09:32:36.922Z,75.03
2023-11-14T09:35:03.988Z,73.60
2023-11-14T09:37:30.725Z,66.97
2023-11-14T09:39:57.318Z,73.03
2023-11-14T09:42:23.979Z,68.38
2023-11-14T09:44:50.823Z,64.63
2023-11-14T09:47:17.480Z,55.00
2023-11-14T09:49:44.348Z,65.05
2023-11-14T09:52:13.857Z,56.08
2023-11-14T09:54:43.396Z,45.65
2023-11-14T09:57:10.707Z,41.22
2023-11-14T09:59:39.106Z,70.07
2023-11-14T10:02:05.978Z,41.22
2023-11-14T10:04:32.646Z,49.63
2023-11-14T10:06:59.705Z,49.40
2023-11-14T10:09:27.001Z,50.05
2023-11-14T10:12:12.630Z,53.88
2023-11-14T10:14:43.948Z,51.90
2023-11-14T10:17:10.512Z,37.65
2023-11-14T10:19:37.101Z,41.92
2023-11-14T10:22:04.583Z,42.33
2023-11-14T10:24:31.257Z,36.58
2023-11-14T10:26:57.984Z,23.05
2023-11-14T10:29:24.732Z,23.13
2023-11-14T10:31:52.819Z,22.30
2023-11-14T10:34:25.700Z,19.98
2023-11-14T10:36:52.875Z,15.70
2023-11-14T10:39:19.473Z,19.27
2023-11-14T10:41:46.700Z,21.20
2023-11-14T10:44:14.293Z,17.23
2023-11-14T10:46:50.949Z,21.67
2023-11-14T10:49:17.973Z,19.67
2023-11-14T10:51:47.201Z,24.20
2023-11-14T10:54:14.537Z,20.05
2023-11-14T10:56:48.943Z,23.13
2023-11-14T10:59:19.519Z,20.55
2023-11-14T11:01:47.342Z,20.13
2023-11-14T11:04:15.895Z,25.93
2023-11-14T11:06:43.168Z,18.38
2023-11-14T11:09:09.725Z,19.50
2023-11-14T11:11:44.435Z,25.17
2023-11-14T11:14:14.344Z,22.98
2023-11-14T11:16:46.058Z,16.73
2023-11-14T11:19:25.354Z,24.60
2023-11-14T11:22:06.675Z,19.95
2023-11-14T11:24:41.084Z,18.05
2023-11-14T11:27:14.811Z,25.10
2023-11-14T11:29:59.801Z,23.88
2023-11-14T11:32:34.862Z,32.35
2023-11-14T11:35:34.014Z,31.75
2023-11-14T11:38:11.319Z,24.15
2023-11-14T11:41:09.553Z,26.10
2023-11-14T11:43:39.670Z,29.35
2023-11-14T11:46:35.312Z,23.90
2023-11-14T11:49:11.025Z,28.77
2023-11-14T11:51:45.160Z,20.92
2023-11-14T11:54:30.354Z,28.42
2023-11-14T11:57:05.773Z,36.72
2023-11-14T11:59:41.555Z,29.73
2023-11-14T12:02:12.519Z,26.48
2023-11-14T12:04:40.236Z,32.22
2023-11-14T12:07:07.554Z,31.57
2023-11-14T12:09:34.172Z,26.00
2023-11-14T12:12:01.218Z,34.45
2023-11-14T12:14:27.912Z,28.70
2023-11-14T12:16:54.593Z,33.65
2023-11-14T12:19:21.202Z,25.05
2023-11-14T12:21:47.853Z,32.00
2023-11-14T12:24:15.338Z,34.28
2023-11-14T12:26:42.107Z,26.58
2023-11-14T12:29:09.898Z,27.17
2023-11-14T12:31:36.801Z,27.23
2023-11-14T12:34:03.953Z,36.47
2023-11-14T12:36:30.607Z,33.25
2023-11-14T12:39:12.871Z,31.35
2023-11-14T12:41:48.613Z,35.30
2023-11-14T12:44:15.766Z,31.92
2023-11-14T12:46:42.975Z,32.33
2023-11-14T12:49:14.308Z,38.75
2023-11-14T12:51:48.748Z,29.42
2023-11-14T12:54:20.209Z,30.52
2023-11-14T12:56:47.425Z,32.63
2023-11-14T12:59:14.206Z,30.52
2023-11-14T13:01:42.578Z,40.03
2023-11-14T13:04:13.053Z,28.73
2023-11-14T13:06:42.274Z,30.73
2023-11-14T13:09:08.941Z,25.67
2023-11-14T13:11:36.151Z,35.00
2023-11-14T13:14:04.007Z,49.08
2023-11-14T13:16:30.831Z,35.40
2023-11-14T13:18:57.902Z,39.45
2023-11-14T13:21:24.893Z,37.47
2023-11-14T13:23:52.178Z,34.15
2023-11-14T13:26:18.925Z,38.38
2023-11-14T13:28:45.618Z,34.58
2023-11-14T13:31:12.170Z,25.48
2023-11-14T13:33:38.872Z,22.55
2023-11-14T13:36:05.988Z,23.63
2023-11-14T13:38:33.888Z,21.35
2023-11-14T13:41:01.252Z,48.90
2023-11-14T13:43:28.040Z,38.40
2023-11-14T13:45:54.814Z,48.78
2023-11-14T13:48:21.592Z,47.17
2023-11-14T13:50:48.867Z,51.97
2023-11-14T13:53:16.276Z,47.30
2023-11-14T13:55:42.862Z,39.53
2023-11-14T13:58:09.586Z,42.40
2023-11-14T14:00:36.262Z,33.35
2023-11-14T14:03:03.059Z,34.83
2023-11-14T14:05:29.843Z,40.90
2023-11-14T14:07:56.622Z,42.85
2023-11-14T14:10:23.323Z,48.17
2023-11-14T14:12:49.962Z,41.65
2023-11-14T14:15:16.621Z,42.33
2023-11-14T14:17:45.650Z,36.85
2023-11-14T14:20:12.854Z,43.55
2023-11-14T14:22:39.588Z,40.72
2023-11-14T14:25:10.335Z,41.15
2023-11-14T14:27:37.780Z,43.08
2023-11-14T14:30:05.521Z,47.38
2023-11-14T14:32:32.539Z,42.58
2023-11-14T14:34:59.751Z,37.15
2023-11-14T14:37:26.886Z,40.38
2023-11-14T14:39:55.601Z,42.92
2023-11-14T14:44:48.801Z,41.85
2023-11-14T14:47:15.471Z,29.77
2023-11-14T14:49:42.893Z,36.53
2023-11-14T14:52:09.499Z,34.25
2023-11-14T14:54:39.316Z,38.85
2023-11-14T14:57:06.705Z,28.42
2023-11-14T14:59:33.388Z,25.23
2023-11-14T15:02:00.118Z,33.40
2023-11-14T15:04:27.377Z,41.22
2023-11-14T15:06:54.281Z,34.75
2023-11-14T15:09:20.825Z,36.10
2023-11-14T15:11:47.399Z,31.13
2023-11-14T15:14:14.124Z,33.67
2023-11-14T15:16:40.813Z,30.05
2023-11-14T15:19:07.613Z,33.30
2023-11-14T15:21:34.251Z,31.00
2023-11-14T15:24:00.867Z,43.35
2023-11-14T15:26:27.574Z,38.70
2023-11-14T15:28:54.235Z,32.95
2023-11-14T15:31:20.913Z,38.00
2023-11-14T15:33:47.640Z,30.73
2023-11-14T15:36:14.319Z,31.77
2023-11-14T15:38:40.921Z,36.45
2023-11-14T15:41:07.624Z,34.35
2023-11-14T15:43:34.304Z,31.30
2023-11-14T15:46:00.983Z,26.75
2023-11-14T15:48:27.622Z,40.20
2023-11-14T15:50:54.250Z,26.25
2023-11-14T15:53:20.832Z,26.70
2023-11-14T15:55:47.490Z,33.53
2023-11-14T15:58:14.120Z,36.67
2023-11-14T16:00:40.681Z,36.83
2023-11-14T16:03:07.312Z,33.28
2023-11-14T16:05:34.034Z,36.97
2023-11-14T16:08:00.953Z,38.13
2023-11-14T16:10:27.605Z,42.92
2023-11-14T16:12:54.225Z,34.17
2023-11-14T16:15:20.909Z,35.15
2023-11-14T16:17:47.760Z,32.45
2023-11-14T16:20:14.608Z,35.08
2023-11-14T16:22:41.252Z,38.35
2023-11-14T16:25:08.243Z,38.17
2023-11-14T16:27:34.859Z,30.38
2023-11-14T16:30:01.818Z,34.17
2023-11-14T16:32:28.557Z,31.25
2023-11-14T16:34:55.185Z,30.35
2023-11-14T16:37:21.787Z,34.10
2023-11-14T16:39:48.318Z,34.78
2023-11-14T16:42:14.935Z,36.47
2023-11-14T16:44:41.635Z,42.53
2023-11-14T16:47:08.364Z,32.92
2023-11-14T16:49:35.713Z,31.15
2023-11-14T16:52:02.373Z,46.40
2023-11-14T16:54:28.975Z,45.83
2023-11-14T16:56:55.525Z,29.73
2023-11-14T16:59:22.206Z,31.13
2023-11-14T17:01:48.801Z,43.83
2023-11-14T17:04:15.468Z,30.95
2023-11-14T17:06:42.111Z,41.35
2023-11-14T17:09:08.696Z,43.50
2023-11-14T17:11:35.310Z,39.90
2023-11-14T17:14:02.007Z,29.35
2023-11-14T17:16:30.140Z,31.43
2023-11-14T17:18:56.827Z,34.83
2023-11-14T17:21:24.158Z,38.92
2023-11-14T17:23:50.783Z,33.60
2023-11-14T17:26:19.402Z,34.55
2023-11-14T17:28:46.940Z,32.08
2023-11-14T17:31:13.524Z,30.70
2023-11-14T17:33:40.065Z,29.02
2023-11-14T17:36:07.310Z,32.22
2023-11-14T17:38:33.993Z,32.15
2023-11-14T17:41:00.630Z,30.92
2023-11-14T17:43:27.274Z,26.45
2023-11-14T17:45:53.870Z,34.50
2023-11-14T17:48:20.558Z,29.95
2023-11-14T17:50:47.692Z,35.03
2023-11-14T17:53:14.555Z,24.50
2023-11-14T17:55:41.237Z,25.95
2023-11-14T17:58:07.859Z,30.30
2023-11-14T18:00:34.617Z,33.53
2023-11-14T18:03:01.529Z,43.40
2023-11-14T18:05:29.510Z,27.77
2023-11-14T18:07:56.445Z,29.88
2023-11-14T18:10:23.207Z,32.20
2023-11-14T18:12:50.963Z,34.55
2023-11-14T18:15:18.016Z,31.70
2023-11-14T18:17:44.796Z,28.58
2023-11-14T18:20:14.125Z,33.40
2023-11-14T18:22:40.915Z,30.85
2023-11-14T18:25:08.024Z,35.30
2023-11-14T18:27:34.894Z,23.17
2023-11-14T18:30:01.682Z,31.95
2023-11-14T18:32:28.302Z,32.78
2023-11-14T18:34:54.984Z,32.20
2023-11-14T18:37:21.588Z,30.60
2023-11-14T18:39:48.205Z,31.60
2023-11-14T18:42:14.833Z,34.50
2023-11-14T18:44:50.741Z,37.30
2023-11-14T18:47:24.959Z,31.30
2023-11-14T18:49:51.841Z,27.45
2023-11-14T18:52:18.445Z,39.95
2023-11-14T18:54:45.002Z,34.70
2023-11-14T18:57:11.609Z,41.53
2023-11-14T18:59:38.223Z,38.72
2023-11-14T19:02:04.892Z,34.72
2023-11-14T19:04:31.602Z,37.28
2023-11-14T19:06:58.262Z,28.98
2023-11-14T19:09:25.731Z,28.23
2023-11-14T19:11:52.548Z,40.70
2023-11-14T19:14:19.162Z,32.95
2023-11-14T19:16:47.306Z,36.85
2023-11-14T19:19:14.078Z,30.50
2023-11-14T19:21:45.286Z,25.38
2023-11-14T19:24:13.340Z,35.97
2023-11-14T19:26:40.027Z,33.10
2023-11-14T19:29:06.658Z,36.20
2023-11-14T19:31:33.275Z,31.50
2023-11-14T19:33:59.885Z,31.73
2023-11-14T19:36:26.469Z,43.17
2023-11-14T19:38:53.062Z,36.60
2023-11-14T19:41:19.708Z,38.45
2023-11-14T19:43:46.901Z,40.60
2023-11-14T19:46:13.614Z,42.22
2023-11-14T19:48:40.216Z,41.88
2023-11-14T19:51:06.817Z,40.55
2023-11-14T19:53:33.560Z,35.20
2023-11-14T19:56:00.204Z,46.47
2023-11-14T19:58:26.847Z,34.80
2023-11-14T20:00:53.403Z,39.95
2023-11-14T20:03:20.202Z,46.92
2023-11-14T20:05:46.924Z,38.85
2023-11-14T20:08:13.599Z,37.83
2023-11-14T20:10:40.189Z,38.90
2023-11-14T20:13:06.809Z,36.38
2023-11-14T20:15:33.425Z,35.88
2023-11-14T20:18:00.146Z,36.90
2023-11-14T20:20:26.804Z,35.25
2023-11-14T20:22:53.479Z,40.35
2023-11-14T20:25:20.594Z,38.50
2023-11-14T20:27:47.179Z,39.45
2023-11-14T20:30:14.039Z,40.53
2023-11-14T20:32:40.698Z,26.10
2023-11-14T20:35:07.622Z,36.38
2023-11-14T20:37:34.244Z,34.72
2023-11-14T20:40:00.855Z,40.35
2023-11-14T20:42:27.443Z,32.35
2023-11-14T20:44:54.111Z,35.00
2023-11-14T20:47:20.869Z,41.72
2023-11-14T20:49:47.499Z,37.35
2023-11-14T20:52:14.399Z,49.17
2023-11-14T20:54:40.958Z,39.85
2023-11-14T20:57:07.609Z,45.92
2023-11-14T20:59:34.533Z,37.10
2023-11-14T21:02:01.343Z,31.27
2023-11-14T21:06:23.653Z,32.85
2023-11-14T21:08:50.411Z,40.38
2023-11-14T21:11:17.255Z,39.20
2023-11-14T21:13:44.046Z,38.72
2023-11-14T21:16:10.919Z,37.88
2023-11-14T21:18:37.972Z,43.75
2023-11-14T21:21:06.076Z,36.92
2023-11-14T21:23:32.728Z,39.83
2023-11-14T21:25:59.327Z,34.22
2023-11-14T21:28:25.963Z,32.00
2023-11-14T21:30:52.557Z,38.47
2023-11-14T21:33:19.342Z,32.08
2023-11-14T21:35:46.031Z,34.28
2023-11-14T21:38:12.648Z,34.30
2023-11-14T21:40:39.212Z,30.73
2023-11-14T21:43:05.813Z,32.35
2023-11-14T21:45:32.391Z,28.80
2023-11-14T21:47:59.064Z,32.58
2023-11-14T21:50:25.762Z,27.70
2023-11-14T21:52:52.342Z,26.02
2023-11-14T21:55:19.020Z,29.15
2023-11-14T21:57:45.581Z,38.05
2023-11-14T22:00:13.036Z,32.40
2023-11-14T22:02:39.780Z,38.35
2023-11-14T22:05:06.683Z,40.63
2023-11-14T22:07:33.319Z,34.15
2023-11-14T22:10:03.531Z,30.85
2023-11-14T22:12:31.329Z,40.78
2023-11-14T22:14:58.046Z,34.35
2023-11-14T22:17:24.870Z,36.33
2023-11-14T22:19:51.704Z,39.15
2023-11-14T22:22:18.317Z,22.75
2023-11-14T22:24:44.922Z,23.52
2023-11-14T22:27:11.549Z,42.10
2023-11-14T22:29:38.162Z,30.40
2023-11-14T22:32:05.020Z,39.50
2023-11-14T22:34:31.559Z,35.80
2023-11-14T22:36:58.454Z,35.13
2023-11-14T22:39:25.077Z,36.92
2023-11-14T22:41:51.675Z,35.35
2023-11-14T22:44:18.353Z,31.30
2023-11-14T22:46:45.350Z,38.22
2023-11-14T22:49:11.918Z,31.45
2023-11-14T22:51:38.795Z,29.58
2023-11-14T22:54:05.533Z,24.85
2023-11-14T22:56:32.461Z,33.55
2023-11-14T22:58:59.287Z,24.75
2023-11-14T23:01:26.017Z,37.78
2023-11-14T23:03:52.711Z,34.38
2023-11-14T23:06:19.362Z,30.08
2023-11-14T23:08:46.018Z,30.63
2023-11-14T23:11:12.761Z,32.47
2023-11-14T23:13:39.348Z,39.90
2023-11-14T23:16:06.512Z,27.38
2023-11-14T23:18:33.655Z,29.20
2023-11-14T23:21:00.419Z,24.38
2023-11-14T23:23:27.407Z,24.13
2023-11-14T23:25:53.984Z,33.67
2023-11-14T23:28:20.636Z,27.65
2023-11-14T23:30:47.253Z,29.42
2023-11-14T23:33:13.902Z,29.83
2023-11-14T23:35:40.680Z,31.50
2023-11-14T23:38:07.328Z,29.70
2023-11-14T23:40:33.923Z,34.83
2023-11-14T23:43:00.722Z,36.50
2023-11-14T23:45:27.323Z,42.53
2023-11-14T23:47:54.034Z,28.30
2023-11-14T23:50:20.782Z,38.17
2023-11-14T23:52:48.714Z,30.98
2023-11-14T23:55:15.792Z,33.07
2023-11-14T23:57:42.432Z,35.20
